Time;durP1;ratioP1;P1;durP2;ratioP2;P2;SDS_P1;SDS_P2;PMS_P1;PMS_P2;Temp;Humidity;BMP_temperature;BMP_pressure;BME280_temperature;BME280_humidity;BME280_pressure;Samples;Min_cycle;Max_cycle;Signal;HPM_P1;HPM_P2
2023/07/15 00:02:11;;;;;;;;;;;;;;;22.64;48.50;100761.00;4968754;28;4028;-75
2023/07/15 00:04:38;;;;;;;;;;;;;;;22.65;48.50;100759.59;4969249;28;4040;-75
2023/07/15 00:07:04;;;;;;;;;;;;;;;22.64;48.55;100755.97;4973410;28;4126;-74
2023/07/15 00:09:33;;;;;;;;;;;;;;;22.65;48.55;100756.69;4965410;28;4182;-74
2023/07/15 00:12:00;;;;;;;;;;;;;;;22.64;48.72;100747.31;4973797;28;4200;-74
2023/07/15 00:14:28;;;;;;;;;;;;;;;22.66;48.45;100749.53;4974200;28;4180;-74
2023/07/15 00:16:55;;;;;;;;;;;;;;;22.67;48.58;100753.88;4973432;28;4520;-74
2023/07/15 00:19:22;;;;;;;;;;;;;;;22.64;48.51;100737.91;4971932;28;4384;-74
2023/07/15 00:21:49;;;;;;;;;;;;;;;22.64;48.42;100732.16;4972153;28;4152;-74
2023/07/15 00:24:15;;;;;;;;;;;;;;;22.65;48.74;100727.84;4968035;28;4133;-74
2023/07/15 00:26:41;;;;;;;;;;;;;;;22.63;48.43;100710.44;4971292;28;4287;-74
2023/07/15 00:29:08;;;;;;;;;;;;;;;22.63;48.36;100713.34;4971807;28;4199;-74
2023/07/15 00:31:34;;;;;;;;;;;;;;;22.64;48.52;100729.25;4982079;28;4180;-74
2023/07/15 00:34:02;;;;;;;;;;;;;;;22.63;48.76;100724.88;4968313;28;4238;-75
2023/07/15 00:36:29;;;;;;;;;;;;;;;22.63;48.37;100725.63;4967599;28;4157;-75
2023/07/15 00:38:56;;;;;;;;;;;;;;;22.66;48.50;100723.56;4969557;28;4158;-74
2023/07/15 00:41:23;;;;;;;;;;;;;;;22.64;48.67;100721.34;4968094;28;4137;-74
2023/07/15 00:43:58;;;;;;;;;;;;;;;22.62;48.65;100717.63;4983476;28;4045;-75
2023/07/15 00:46:34;;;;;;;;;;;;;;;22.64;48.69;100714.81;4967405;28;4358;-65
2023/07/15 00:49:12;;;;;;;;;;;;;;;22.63;48.43;100707.56;4987521;28;4473;-74
2023/07/15 00:51:39;;;;;;;;;;;;;;;22.62;48.61;100700.31;4967219;28;4118;-74
2023/07/15 00:54:06;;;;;;;;;;;;;;;22.61;48.86;100698.81;4985109;28;4039;-74
2023/07/15 00:56:32;;;;;;;;;;;;;;;22.64;48.44;100703.28;4966617;28;4191;-75
2023/07/15 00:59:02;;;;;;;;;;;;;;;22.62;48.77;100701.06;4969565;28;4203;-74
2023/07/15 01:01:28;;;;;;;;;;;;;;;22.63;48.85;100696.03;4981240;28;4393;-74
2023/07/15 01:03:56;;;;;;;;;;;;;;;22.64;48.88;100703.28;4975362;28;4224;-74
2023/07/15 01:06:23;;;;;;;;;;;;;;;22.59;48.69;100693.75;4971176;28;4114;-74
2023/07/15 01:08:50;;;;;;;;;;;;;;;22.61;49.04;100685.16;4969470;28;4101;-74
2023/07/15 01:11:16;;;;;;;;;;;;;;;22.62;49.08;100691.66;4973317;28;4203;-74
2023/07/15 01:13:43;;;;;;;;;;;;;;;22.59;48.86;100688.69;4968772;28;4144;-75
2023/07/15 01:16:10;;;;;;;;;;;;;;;22.56;49.16;100689.28;4972294;28;4079;-74
2023/07/15 01:18:38;;;;;;;;;;;;;;;22.59;49.20;100685.81;4988338;28;4282;-74
2023/07/15 01:21:04;;;;;;;;;;;;;;;22.57;49.17;100679.97;4963917;28;4073;-74
2023/07/15 01:23:31;;;;;;;;;;;;;;;22.55;48.96;100685.66;4984176;28;5094;-72
2023/07/15 01:25:57;;;;;;;;;;;;;;;22.56;49.02;100675.63;4973019;28;4010;-74
2023/07/15 01:28:23;;;;;;;;;;;;;;;22.56;48.94;100674.88;4965607;28;4428;-74
2023/07/15 01:30:50;;;;;;;;;;;;;;;22.59;49.15;100659.84;4969646;28;4183;-74
2023/07/15 01:33:18;;;;;;;;;;;;;;;22.59;49.15;100656.22;4969094;28;4245;-74
2023/07/15 01:35:45;;;;;;;;;;;;;;;22.56;49.33;100669.84;4969817;28;4671;-74
2023/07/15 01:38:13;;;;;;;;;;;;;;;22.55;49.46;100653.94;4966147;28;5094;-74
2023/07/15 01:40:39;;;;;;;;;;;;;;;22.54;49.24;100657.47;4966613;28;4129;-74
2023/07/15 01:43:06;;;;;;;;;;;;;;;22.53;49.41;100650.97;4965270;28;4185;-74
2023/07/15 01:45:32;;;;;;;;;;;;;;;22.55;49.44;100647.44;4969765;28;4185;-74
2023/07/15 01:47:58;;;;;;;;;;;;;;;22.52;49.26;100652.41;4963619;28;4166;-75
2023/07/15 01:50:25;;;;;;;;;;;;;;;22.53;49.66;100648.09;4967594;28;4554;-74
2023/07/15 01:52:51;;;;;;;;;;;;;;;22.51;49.44;100645.13;4967963;28;4500;-75
2023/07/15 01:55:18;;;;;;;;;;;;;;;22.52;49.64;100640.84;4965886;28;4089;-74
2023/07/15 01:57:45;;;;;;;;;;;;;;;22.53;49.43;100636.53;4980436;28;4465;-74
2023/07/15 02:00:16;;;;;;;;;;;;;;;22.57;49.37;100641.72;4968005;28;4167;-74
2023/07/15 02:02:43;;;;;;;;;;;;;;;22.52;49.67;100640.84;4970896;28;4245;-74
2023/07/15 02:05:09;;;;;;;;;;;;;;;22.53;49.67;100642.31;4969800;28;4019;-74
2023/07/15 02:07:36;;;;;;;;;;;;;;;22.51;49.83;100650.16;4965701;28;4287;-74
2023/07/15 02:10:02;;;;;;;;;;;;;;;22.51;50.13;100642.25;4969784;28;4031;-74
2023/07/15 02:12:29;;;;;;;;;;;;;;;22.52;49.73;100631.47;4962995;28;4177;-74
2023/07/15 02:14:55;;;;;;;;;;;;;;;22.50;49.75;100637.91;4961988;28;4005;-74
2023/07/15 02:17:22;;;;;;;;;;;;;;;22.51;50.13;100633.59;4959479;28;4144;-74
2023/07/15 02:19:49;;;;;;;;;;;;;;;22.51;49.98;100639.34;4965308;28;4069;-74
2023/07/15 02:22:16;;;;;;;;;;;;;;;22.50;49.99;100635.00;4967090;28;4120;-74
2023/07/15 02:24:43;;;;;;;;;;;;;;;22.49;49.97;100630.63;4969358;28;4152;-74
2023/07/15 02:27:09;;;;;;;;;;;;;;;22.48;49.89;100632.06;4964980;28;4193;-74
2023/07/15 02:29:35;;;;;;;;;;;;;;;22.48;50.03;100634.94;4963279;28;4390;-74
2023/07/15 02:32:02;;;;;;;;;;;;;;;22.51;49.95;100633.59;4971358;28;3995;-74
2023/07/15 02:34:29;;;;;;;;;;;;;;;22.47;50.15;100633.47;4971681;28;4300;-74
2023/07/15 02:36:56;;;;;;;;;;;;;;;22.45;50.07;100636.28;4972731;28;4203;-74
2023/07/15 02:39:22;;;;;;;;;;;;;;;22.45;50.28;100632.63;4975250;28;4733;-74
2023/07/15 02:41:50;;;;;;;;;;;;;;;22.44;50.36;100631.91;4967608;28;5459;-74
2023/07/15 02:44:16;;;;;;;;;;;;;;;22.44;50.21;100628.28;4973293;28;4474;-75
2023/07/15 02:46:43;;;;;;;;;;;;;;;22.45;50.48;100630.50;4972678;28;4546;-74
2023/07/15 02:49:09;;;;;;;;;;;;;;;22.45;50.44;100633.41;4969816;28;4109;-74
2023/07/15 02:51:36;;;;;;;;;;;;;;;22.47;50.56;100630.59;4970460;28;4193;-74
2023/07/15 02:54:02;;;;;;;;;;;;;;;22.43;50.27;100627.56;4973268;28;4495;-74
2023/07/15 02:56:29;;;;;;;;;;;;;;;22.44;50.42;100634.78;4960197;28;4853;-74
2023/07/15 02:58:55;;;;;;;;;;;;;;;22.42;50.45;100623.19;4968097;28;4188;-74
2023/07/15 03:01:21;;;;;;;;;;;;;;;22.41;50.77;100626.75;4966855;28;4782;-74
2023/07/15 03:03:48;;;;;;;;;;;;;;;22.39;50.75;100627.41;4970845;28;3992;-74
2023/07/15 03:06:14;;;;;;;;;;;;;;;22.38;50.79;100623.78;4976548;28;3989;-75
2023/07/15 03:08:41;;;;;;;;;;;;;;;22.40;50.89;100620.22;4968225;28;4182;-75
2023/07/15 03:11:08;;;;;;;;;;;;;;;22.43;51.01;100618.91;4969310;28;4257;-75
2023/07/15 03:13:34;;;;;;;;;;;;;;;22.40;50.93;100620.22;4969730;28;5079;-75
2023/07/15 03:16:01;;;;;;;;;;;;;;;22.36;51.51;100623.72;4986131;28;4231;-74
2023/07/15 03:18:28;;;;;;;;;;;;;;;22.39;51.38;100610.09;4973323;28;4156;-74
2023/07/15 03:20:56;;;;;;;;;;;;;;;22.38;51.30;100608.63;4968110;28;4409;-74
2023/07/15 03:23:22;;;;;;;;;;;;;;;22.37;51.36;100613.66;4968452;28;4213;-74
2023/07/15 03:25:49;;;;;;;;;;;;;;;22.34;51.35;100612.13;4967660;28;4057;-75
2023/07/15 03:28:15;;;;;;;;;;;;;;;22.34;51.29;100612.13;4967502;28;4061;-70
2023/07/15 03:30:42;;;;;;;;;;;;;;;22.37;51.20;100607.16;4970801;28;4200;-74
2023/07/15 03:33:09;;;;;;;;;;;;;;;22.34;51.51;100609.22;4967580;28;4094;-74
2023/07/15 03:35:36;;;;;;;;;;;;;;;22.36;51.47;100605.69;4969812;28;4819;-74
2023/07/15 03:38:02;;;;;;;;;;;;;;;22.34;51.53;100608.50;4970328;28;4122;-74
2023/07/15 03:40:32;;;;;;;;;;;;;;;22.35;51.98;100598.41;4971006;28;4075;-75
2023/07/15 03:42:58;;;;;;;;;;;;;;;22.32;52.23;100599.78;4971293;28;4186;-74
2023/07/15 03:45:24;;;;;;;;;;;;;;;22.33;51.96;100601.22;4970553;28;4055;-74
2023/07/15 03:47:51;;;;;;;;;;;;;;;22.32;52.16;100594.00;4976583;28;4170;-74
2023/07/15 03:50:18;;;;;;;;;;;;;;;22.33;52.26;100586.81;4969189;28;4037;-75
2023/07/15 03:52:44;;;;;;;;;;;;;;;22.34;52.20;100594.06;4968276;28;4093;-75
2023/07/15 03:55:11;;;;;;;;;;;;;;;22.36;52.40;100592.00;4969019;28;4088;-74
2023/07/15 03:57:38;;;;;;;;;;;;;;;22.34;52.13;100591.19;4973163;28;4258;-74
2023/07/15 04:00:13;;;;;;;;;;;;;;;22.34;52.29;100588.31;4971441;28;4223;-75
2023/07/15 04:02:44;;;;;;;;;;;;;;;22.33;52.29;100589.69;4961735;28;4228;-74
2023/07/15 04:05:11;;;;;;;;;;;;;;;22.34;52.26;100597.69;4971244;28;3983;-74
2023/07/15 04:07:39;;;;;;;;;;;;;;;22.33;51.98;100604.13;4968718;28;4364;-75
2023/07/15 04:10:06;;;;;;;;;;;;;;;22.33;52.23;100589.69;4969218;28;4553;-74
2023/07/15 04:12:32;;;;;;;;;;;;;;;22.35;52.11;100586.88;4966587;28;4688;-74
2023/07/15 04:14:59;;;;;;;;;;;;;;;22.33;52.19;100589.69;4969613;28;4185;-74
2023/07/15 04:17:25;;;;;;;;;;;;;;;22.33;52.34;100589.69;4970102;28;4494;-74
2023/07/15 04:19:52;;;;;;;;;;;;;;;22.32;52.63;100588.97;4986474;28;4125;-74
2023/07/15 04:22:18;;;;;;;;;;;;;;;22.31;52.33;100581.72;4967053;28;4336;-74
2023/07/15 04:24:44;;;;;;;;;;;;;;;22.31;52.46;100580.97;4971741;28;4057;-75
2023/07/15 04:27:11;;;;;;;;;;;;;;;22.35;52.39;100581.13;4972133;28;4074;-74
2023/07/15 04:29:37;;;;;;;;;;;;;;;22.34;52.25;100573.88;4969961;28;4099;-74
2023/07/15 04:32:04;;;;;;;;;;;;;;;22.33;52.28;100572.38;4967589;28;4128;-74
2023/07/15 04:34:30;;;;;;;;;;;;;;;22.33;52.58;100572.38;4969831;28;4053;-74
2023/07/15 04:36:56;;;;;;;;;;;;;;;22.15;53.37;100575.34;4968842;28;4078;-64
2023/07/15 04:39:24;;;;;;;;;;;;;;;21.82;54.93;100568.47;4969676;28;4536;-64
2023/07/15 04:41:50;;;;;;;;;;;;;;;21.28;55.99;100571.53;4968972;28;4379;-64
2023/07/15 04:44:16;;;;;;;;;;;;;;;21.08;56.33;100573.63;4968476;28;4301;-64
2023/07/15 04:46:43;;;;;;;;;;;;;;;20.96;57.64;100570.25;5000575;28;4340;-63
2023/07/15 04:49:10;;;;;;;;;;;;;;;20.92;57.31;100576.59;4970244;28;4402;-63
2023/07/15 04:51:36;;;;;;;;;;;;;;;20.96;58.32;100581.75;4969641;28;4757;-63
2023/07/15 04:54:03;;;;;;;;;;;;;;;20.89;58.49;100575.78;4967359;28;4173;-64
2023/07/15 04:56:29;;;;;;;;;;;;;;;20.75;59.15;100580.22;4969790;28;4418;-63
2023/07/15 04:58:56;;;;;;;;;;;;;;;20.81;58.38;100578.31;4966485;28;4233;-63
2023/07/15 05:01:22;;;;;;;;;;;;;;;20.92;58.74;100574.44;4968116;28;4178;-64
2023/07/15 05:03:49;;;;;;;;;;;;;;;20.85;59.46;100572.00;4965166;28;4240;-63
2023/07/15 05:06:15;;;;;;;;;;;;;;;20.80;59.12;100573.22;4966121;28;4899;-63
2023/07/15 05:08:42;;;;;;;;;;;;;;;20.87;59.32;100572.81;4967233;28;4131;-63
2023/07/15 05:11:08;;;;;;;;;;;;;;;21.01;58.18;100569.03;4968297;28;4033;-63
2023/07/15 05:13:35;;;;;;;;;;;;;;;20.91;58.50;100567.22;4967731;28;4470;-64
2023/07/15 05:16:01;;;;;;;;;;;;;;;20.99;58.30;100574.69;4964398;28;4183;-64
2023/07/15 05:18:28;;;;;;;;;;;;;;;21.12;57.56;100570.91;4970306;28;4165;-63
2023/07/15 05:20:54;;;;;;;;;;;;;;;21.11;57.63;100569.41;4968778;28;4103;-64
2023/07/15 05:23:22;;;;;;;;;;;;;;;20.97;58.74;100580.38;4965265;28;4213;-63
2023/07/15 05:25:48;;;;;;;;;;;;;;;20.93;58.61;100573.03;4963128;28;4326;-63
2023/07/15 05:28:15;;;;;;;;;;;;;;;21.08;57.19;100576.50;4967516;28;4471;-63
2023/07/15 05:30:41;;;;;;;;;;;;;;;21.04;58.35;100570.56;4970285;28;4331;-63
2023/07/15 05:33:08;;;;;;;;;;;;;;;21.07;57.67;100581.53;4970612;28;4254;-63
2023/07/15 05:35:34;;;;;;;;;;;;;;;21.12;58.00;100570.91;4964160;28;4119;-64
2023/07/15 05:38:01;;;;;;;;;;;;;;;21.26;57.38;100574.31;4965976;28;4212;-63
2023/07/15 05:40:27;;;;;;;;;;;;;;;21.26;57.62;100577.19;4966440;28;4026;-64
2023/07/15 05:42:54;;;;;;;;;;;;;;;21.26;57.79;100568.56;4968489;28;4165;-63
2023/07/15 05:45:20;;;;;;;;;;;;;;;21.28;57.88;100570.75;4967115;28;4098;-63
2023/07/15 05:47:47;;;;;;;;;;;;;;;21.19;58.19;100569.72;4965961;28;4133;-63
2023/07/15 05:50:13;;;;;;;;;;;;;;;21.30;57.81;100568.72;4966041;28;4415;-64
2023/07/15 05:52:40;;;;;;;;;;;;;;;21.37;57.74;100574.69;4971515;28;4173;-64
2023/07/15 05:55:06;;;;;;;;;;;;;;;21.50;57.18;100573.78;4968068;28;4169;-64
2023/07/15 05:57:33;;;;;;;;;;;;;;;21.51;57.25;100566.63;4967434;28;4187;-63
2023/07/15 05:59:59;;;;;;;;;;;;;;;21.56;57.18;100576.91;4963864;28;4511;-64
2023/07/15 06:02:26;;;;;;;;;;;;;;;21.51;57.88;100564.47;4961800;28;4051;-63
2023/07/15 06:04:53;;;;;;;;;;;;;;;21.62;57.19;100570.59;4962483;28;4169;-63
2023/07/15 06:07:19;;;;;;;;;;;;;;;21.67;56.92;100558.56;4964241;28;4210;-64
2023/07/15 06:09:46;;;;;;;;;;;;;;;21.67;57.82;100564.34;4969078;28;4180;-63
2023/07/15 06:12:13;;;;;;;;;;;;;;;21.81;56.65;100566.25;4984201;28;4286;-63
2023/07/15 06:14:39;;;;;;;;;;;;;;;21.80;57.16;100565.50;4967430;28;4146;-64
2023/07/15 06:17:06;;;;;;;;;;;;;;;21.79;57.77;100563.31;4966288;28;4433;-63
2023/07/15 06:19:32;;;;;;;;;;;;;;;21.85;56.85;100566.38;4966172;28;4166;-64
2023/07/15 06:21:59;;;;;;;;;;;;;;;21.92;56.40;100560.19;4967774;28;4348;-63
2023/07/15 06:24:27;;;;;;;;;;;;;;;21.88;58.26;100553.53;4966243;28;4168;-64
2023/07/15 06:26:54;;;;;;;;;;;;;;;21.93;56.45;100555.88;4969556;28;4265;-63
2023/07/15 06:29:20;;;;;;;;;;;;;;;21.95;56.95;100552.34;4963639;28;4195;-64
2023/07/15 06:31:46;;;;;;;;;;;;;;;21.95;57.22;100558.09;4967344;28;5823;-63
2023/07/15 06:34:13;;;;;;;;;;;;;;;22.07;56.57;100558.53;4970165;28;4156;-63
2023/07/15 06:36:39;;;;;;;;;;;;;;;22.07;56.34;100564.28;4962713;28;4595;-64
2023/07/15 06:39:06;;;;;;;;;;;;;;;22.09;56.05;100560.75;4965839;28;4204;-63
2023/07/15 06:41:32;;;;;;;;;;;;;;;22.09;55.99;100567.25;4965347;28;4219;-64
2023/07/15 06:43:59;;;;;;;;;;;;;;;22.12;55.88;100571.66;4968586;28;4470;-64
2023/07/15 06:46:25;;;;;;;;;;;;;;;22.15;56.13;100567.47;4967700;28;4154;-64
2023/07/15 06:48:52;;;;;;;;;;;;;;;22.25;56.23;100560.59;4966436;28;4123;-64
2023/07/15 06:51:19;;;;;;;;;;;;;;;22.18;56.41;100562.50;4964769;28;4176;-67
2023/07/15 06:53:45;;;;;;;;;;;;;;;22.25;56.12;100558.44;4962919;28;4046;-72
2023/07/15 06:56:12;;;;;;;;;;;;;;;22.27;55.72;100552.00;4969263;28;4065;-72
2023/07/15 06:58:46;;;;;;;;;;;;;;;22.30;55.49;100553.53;4965102;28;4276;-73
2023/07/15 07:01:13;;;;;;;;;;;;;;;22.31;55.62;100547.13;4963974;28;4085;-73
2023/07/15 07:03:40;;;;;;;;;;;;;;;22.34;55.53;100556.56;4966360;28;4501;-73
2023/07/15 07:06:06;;;;;;;;;;;;;;;22.37;54.84;100550.19;4964281;28;4168;-73
2023/07/15 07:08:32;;;;;;;;;;;;;;;22.41;54.64;100554.63;4967357;28;4109;-73
2023/07/15 07:10:59;;;;;;;;;;;;;;;22.41;54.80;100538.06;4969042;28;4172;-71
2023/07/15 07:13:25;;;;;;;;;;;;;;;22.48;54.56;100553.41;4967963;28;4148;-73
2023/07/15 07:15:52;;;;;;;;;;;;;;;22.45;54.71;100549.72;4967428;28;4194;-73
2023/07/15 07:18:18;;;;;;;;;;;;;;;22.48;54.52;100548.38;4982903;28;4908;-71
2023/07/15 07:20:45;;;;;;;;;;;;;;;22.48;54.53;100542.59;4968268;28;4215;-71
2023/07/15 07:23:11;;;;;;;;;;;;;;;22.43;54.96;100546.78;4965238;28;4002;-69
2023/07/15 07:25:39;;;;;;;;;;;;;;;22.49;54.56;100537.56;4966775;28;4199;-70
2023/07/15 07:28:06;;;;;;;;;;;;;;;22.48;54.85;100536.09;4967449;28;4240;-68
2023/07/15 07:30:32;;;;;;;;;;;;;;;22.46;54.48;100533.88;4966612;28;4110;-68
2023/07/15 07:32:59;;;;;;;;;;;;;;;22.44;54.86;100533.81;4970669;28;4169;-68
2023/07/15 07:35:25;;;;;;;;;;;;;;;22.44;54.52;100533.81;4967983;28;4483;-69
2023/07/15 07:37:54;;;;;;;;;;;;;;;22.44;54.40;100530.94;4969144;28;4236;-69
2023/07/15 07:40:21;;;;;;;;;;;;;;;22.49;54.37;100521.00;4972275;28;4441;-76
2023/07/15 07:42:47;;;;;;;;;;;;;;;22.53;54.47;100509.59;4983547;28;4018;-72
2023/07/15 07:45:14;;;;;;;;;;;;;;;22.54;54.41;100511.06;4970008;28;4023;-72
2023/07/15 07:47:40;;;;;;;;;;;;;;;22.57;54.49;100515.50;4973062;28;4139;-71
2023/07/15 07:50:07;;;;;;;;;;;;;;;22.56;54.51;100513.28;4971026;28;4418;-71
2023/07/15 07:52:33;;;;;;;;;;;;;;;22.57;54.42;100514.75;4968506;28;4072;-71
2023/07/15 07:55:00;;;;;;;;;;;;;;;22.56;54.45;100514.03;4968091;28;4335;-71
2023/07/15 07:57:27;;;;;;;;;;;;;;;22.60;54.79;100513.41;4969515;28;4291;-69
2023/07/15 07:59:53;;;;;;;;;;;;;;;22.61;54.49;100509.13;4966363;28;4137;-69
2023/07/15 08:02:20;;;;;;;;;;;;;;;22.62;54.79;100507.69;4969035;28;4204;-66
2023/07/15 08:04:48;;;;;;;;;;;;;;;22.75;54.93;100503.06;4965041;28;4192;-67
2023/07/15 08:07:15;;;;;;;;;;;;;;;22.71;54.99;100500.03;4968821;28;4142;-69
2023/07/15 08:09:41;;;;;;;;;;;;;;;22.68;55.04;100507.91;4971737;28;4339;-68
2023/07/15 08:12:10;;;;;;;;;;;;;;;22.65;54.84;100502.72;4968927;28;4140;-67
2023/07/15 08:14:37;;;;;;;;;;;;;;;22.63;54.76;100500.53;4969674;28;3941;-67
2023/07/15 08:17:03;;;;;;;;;;;;;;;22.63;54.76;100503.41;4987035;28;4063;-67
2023/07/15 08:19:29;;;;;;;;;;;;;;;22.63;54.86;100497.66;4971112;28;4062;-68
2023/07/15 08:21:56;;;;;;;;;;;;;;;22.52;55.00;100502.34;4971096;28;4107;-67
2023/07/15 08:24:22;;;;;;;;;;;;;;;22.60;55.07;100501.84;4968123;28;4059;-67
2023/07/15 08:26:49;;;;;;;;;;;;;;;22.62;54.68;100504.81;4973339;28;4244;-67
2023/07/15 08:29:15;;;;;;;;;;;;;;;22.63;54.78;100505.53;4985363;28;4050;-67
2023/07/15 08:31:41;;;;;;;;;;;;;;;22.63;54.65;100506.31;4972385;28;4207;-66
2023/07/15 08:34:08;;;;;;;;;;;;;;;22.64;54.67;100501.25;4964583;28;3979;-66
2023/07/15 08:36:36;;;;;;;;;;;;;;;22.64;54.59;100504.16;4964683;28;4337;-67
2023/07/15 08:39:02;;;;;;;;;;;;;;;22.63;54.45;100494.00;4966632;28;5216;-66
2023/07/15 08:41:29;;;;;;;;;;;;;;;22.64;54.35;100496.22;4970748;28;4113;-66
2023/07/15 08:43:55;;;;;;;;;;;;;;;22.64;54.50;100492.59;4968066;28;4053;-66
2023/07/15 08:46:28;;;;;;;;;;;;;;;22.64;54.36;100484.69;4971826;28;4078;-66
2023/07/15 08:48:55;;;;;;;;;;;;;;;22.64;54.37;100495.50;4970210;28;4292;-67
2023/07/15 08:51:22;;;;;;;;;;;;;;;22.64;54.38;100496.22;4968556;28;4384;-68
2023/07/15 08:53:48;;;;;;;;;;;;;;;22.65;54.57;100500.56;4971457;28;4053;-67
2023/07/15 08:56:15;;;;;;;;;;;;;;;22.66;54.50;100498.44;4972175;28;4303;-67
2023/07/15 08:58:41;;;;;;;;;;;;;;;22.63;54.59;100488.22;4974606;28;5772;-67
2023/07/15 09:01:08;;;;;;;;;;;;;;;22.65;54.40;100491.19;4970284;28;4089;-67
2023/07/15 09:03:34;;;;;;;;;;;;;;;22.66;54.43;100495.56;4964329;28;4124;-66
2023/07/15 09:06:04;;;;;;;;;;;;;;;22.66;54.38;100493.41;4971121;28;4269;-68
2023/07/15 09:08:30;;;;;;;;;;;;;;;22.66;54.32;100484.00;4967211;28;4001;-69
2023/07/15 09:10:57;;;;;;;;;;;;;;;22.68;54.19;100486.97;4964802;28;4364;-68
2023/07/15 09:13:24;;;;;;;;;;;;;;;22.67;54.35;100479.69;4958253;28;4308;-68
2023/07/15 09:15:54;;;;;;;;;;;;;;;22.65;54.43;100479.63;4961062;28;4420;-68
2023/07/15 09:18:21;;;;;;;;;;;;;;;22.75;54.58;100477.06;4976236;28;4234;-71
2023/07/15 09:20:47;;;;;;;;;;;;;;;23.35;54.19;100477.41;4958320;28;4577;-78
2023/07/15 09:23:14;;;;;;;;;;;;;;;23.37;53.17;100474.56;4966734;28;4103;-72
2023/07/15 09:25:53;;;;;;;;;;;;;;;23.43;53.31;100465.31;4963246;28;4275;-75
2023/07/15 09:28:22;;;;;;;;;;;;;;;23.54;53.29;100472.13;4958145;28;4504;-73
2023/07/15 09:30:48;;;;;;;;;;;;;;;23.70;52.73;100471.81;4970102;28;5357;-72
2023/07/15 09:33:28;;;;;;;;;;;;;;;23.70;52.80;100471.81;4967895;28;4250;-76
2023/07/15 09:35:55;;;;;;;;;;;;;;;23.78;52.82;100464.13;4965984;28;3965;-81
2023/07/15 09:38:21;;;;;;;;;;;;;;;23.72;52.93;100466.09;4969212;28;4273;-80
2023/07/15 09:40:49;;;;;;;;;;;;;;;23.59;52.80;100465.03;4972309;28;4095;-77
2023/07/15 09:43:16;;;;;;;;;;;;;;;23.59;52.71;100470.81;4965170;28;3994;-72
2023/07/15 09:45:42;;;;;;;;;;;;;;;23.61;52.98;100467.97;4971164;28;4904;-77
2023/07/15 09:48:10;;;;;;;;;;;;;;;23.56;53.05;100475.06;4968759;28;3972;-75
2023/07/15 09:50:37;;;;;;;;;;;;;;;23.61;53.30;100483.16;4969253;28;4193;-82
2023/07/15 09:53:03;;;;;;;;;;;;;;;23.88;53.04;100471.59;4970211;28;4042;-79
2023/07/15 09:55:31;;;;;;;;;;;;;;;23.72;52.86;100489.94;4967340;28;4049;-73
2023/07/15 09:58:00;;;;;;;;;;;;;;;23.83;53.16;100485.94;4967908;28;4070;-76
2023/07/15 10:00:28;;;;;;;;;;;;;;;23.77;53.72;100485.03;4975136;28;4270;-78
2023/07/15 10:02:56;;;;;;;;;;;;;;;23.99;52.94;100482.72;4965941;28;4424;-78
2023/07/15 10:05:22;;;;;;;;;;;;;;;24.28;52.55;100479.81;4966581;28;4163;-78
2023/07/15 10:07:49;;;;;;;;;;;;;;;23.83;52.61;100485.94;4977202;28;4057;-78
2023/07/15 10:10:15;;;;;;;;;;;;;;;23.78;53.38;100487.25;4979968;28;4297;-77
2023/07/15 10:12:42;;;;;;;;;;;;;;;23.72;53.52;100495.72;4968022;28;4048;-76
2023/07/15 10:15:08;;;;;;;;;;;;;;;23.80;53.34;100489.44;4964385;28;4072;-80
2023/07/15 10:17:35;;;;;;;;;;;;;;;23.76;53.93;100490.09;4967506;28;5450;-85
2023/07/15 10:20:05;;;;;;;;;;;;;;;23.77;54.00;100506.00;4969412;28;3946;-81
2023/07/15 10:22:34;;;;;;;;;;;;;;;23.89;53.46;100496.19;4969878;28;4167;-77
2023/07/15 10:25:01;;;;;;;;;;;;;;;23.99;53.57;100488.50;4973684;28;4722;-78
2023/07/15 10:27:28;;;;;;;;;;;;;;;24.01;53.07;100488.56;4967169;28;4237;-79
2023/07/15 10:30:13;;;;;;;;;;;;;;;23.93;52.97;100482.56;4970278;28;4025;-83
2023/07/15 10:32:39;;;;;;;;;;;;;;;24.04;53.34;100489.34;4969057;28;4062;-83
2023/07/15 10:35:06;;;;;;;;;;;;;;;24.00;52.94;100483.47;4984383;28;4136;-81
2023/07/15 10:37:33;;;;;;;;;;;;;;;23.94;52.94;100489.09;4963528;28;4152;-81
2023/07/15 10:39:59;;;;;;;;;;;;;;;24.01;52.92;100485.69;4970854;28;4182;-83
2023/07/15 10:42:25;;;;;;;;;;;;;;;24.06;52.81;100489.41;4986226;28;4129;-78
2023/07/15 10:44:52;;;;;;;;;;;;;;;24.08;52.68;100488.72;4986396;28;4157;-78
2023/07/15 10:47:19;;;;;;;;;;;;;;;24.15;52.56;100491.09;4967958;28;4161;-84
2023/07/15 10:49:46;;;;;;;;;;;;;;;24.20;52.35;100501.31;4968853;28;3996;-81
2023/07/15 10:52:19;;;;;;;;;;;;;;;24.13;52.46;100496.81;4968887;28;4187;-82
2023/07/15 10:54:46;;;;;;;;;;;;;;;24.11;52.64;100488.09;4971278;28;4817;-86
2023/07/15 10:57:14;;;;;;;;;;;;;;;24.12;52.50;100498.25;4974874;28;4150;-75
2023/07/15 10:59:44;;;;;;;;;;;;;;;24.06;52.91;100497.34;4966113;28;4306;-79
2023/07/15 11:02:11;;;;;;;;;;;;;;;24.13;52.69;100496.81;4969674;28;4342;-78
2023/07/15 11:04:38;;;;;;;;;;;;;;;24.16;52.63;100489.66;4967451;28;4453;-74
2023/07/15 11:07:06;;;;;;;;;;;;;;;24.17;52.51;100496.94;4973056;28;4185;-78
2023/07/15 11:09:32;;;;;;;;;;;;;;;24.12;52.53;100488.81;4964599;28;4183;-75
2023/07/15 11:11:59;;;;;;;;;;;;;;;24.17;52.92;100496.94;4982559;28;4187;-75
2023/07/15 11:14:28;;;;;;;;;;;;;;;24.10;53.00;100491.66;4986513;28;4036;-75
2023/07/15 11:16:58;;;;;;;;;;;;;;;24.05;52.83;100485.03;4970045;28;4084;-74
2023/07/15 11:19:27;;;;;;;;;;;;;;;24.04;52.89;100500.94;4971565;28;4010;-74
2023/07/15 11:21:56;;;;;;;;;;;;;;;24.03;52.92;100487.91;4969188;28;4138;-76
2023/07/15 11:24:23;;;;;;;;;;;;;;;24.03;52.77;100485.00;4961360;28;4287;-72
2023/07/15 11:26:49;;;;;;;;;;;;;;;24.00;53.07;100477.69;4968184;28;3976;-80
2023/07/15 11:29:19;;;;;;;;;;;;;;;23.91;53.50;100476.00;4968689;28;4536;-79
2023/07/15 11:31:46;;;;;;;;;;;;;;;23.79;53.58;100482.94;4971978;28;4068;-73
2023/07/15 11:34:20;;;;;;;;;;;;;;;23.76;53.64;100475.63;4970888;28;4372;-82
2023/07/15 11:36:46;;;;;;;;;;;;;;;23.68;53.88;100472.50;4963499;28;4314;-73
2023/07/15 11:39:13;;;;;;;;;;;;;;;23.79;54.22;100468.47;4971531;28;4560;-72
2023/07/15 11:41:39;;;;;;;;;;;;;;;23.68;54.22;100472.50;4961007;28;4010;-76
2023/07/15 11:44:09;;;;;;;;;;;;;;;23.66;54.29;100465.94;4959126;28;4048;-76
2023/07/15 11:46:36;;;;;;;;;;;;;;;23.70;54.25;100469.66;4967405;28;4054;-73
2023/07/15 11:49:02;;;;;;;;;;;;;;;23.77;54.24;100470.59;4963209;28;3986;-72
2023/07/15 11:51:34;;;;;;;;;;;;;;;23.80;53.62;100461.28;4963338;28;4545;-73
2023/07/15 11:54:00;;;;;;;;;;;;;;;23.75;53.50;100456.81;4962236;28;4027;-73
2023/07/15 11:56:39;;;;;;;;;;;;;;;23.70;53.80;100469.66;4970226;28;4376;-73
2023/07/15 11:59:32;;;;;;;;;;;;;;;23.65;54.04;100462.31;4966839;28;4043;-73
2023/07/15 12:01:59;;;;;;;;;;;;;;;23.62;53.85;100452.13;4968110;28;4245;-73
2023/07/15 12:04:26;;;;;;;;;;;;;;;23.60;53.81;100452.78;4970705;28;3913;-73
2023/07/15 12:06:53;;;;;;;;;;;;;;;23.59;53.79;100448.44;4967155;28;4134;-73
2023/07/15 12:09:21;;;;;;;;;;;;;;;23.59;53.80;100447.69;4966268;28;4160;-73
2023/07/15 12:11:48;;;;;;;;;;;;;;;23.58;53.79;100452.00;4969288;28;4514;-73
2023/07/15 12:14:15;;;;;;;;;;;;;;;23.58;53.83;100449.13;4966949;28;4087;-73
2023/07/15 12:16:42;;;;;;;;;;;;;;;23.57;53.74;100445.50;4975790;28;4552;-73
2023/07/15 12:19:09;;;;;;;;;;;;;;;23.57;53.85;100444.75;4974919;28;4159;-73
2023/07/15 12:21:38;;;;;;;;;;;;;;;23.56;53.65;100443.28;4972866;28;4564;-73
2023/07/15 12:24:05;;;;;;;;;;;;;;;23.56;53.69;100431.72;4971378;28;4361;-73
2023/07/15 12:26:31;;;;;;;;;;;;;;;23.56;53.64;100423.06;4959744;28;5031;-73
2023/07/15 12:28:58;;;;;;;;;;;;;;;23.54;53.73;100423.72;4966941;28;4773;-72
2023/07/15 12:31:24;;;;;;;;;;;;;;;23.54;53.81;100417.94;4969152;28;4216;-72
2023/07/15 12:33:51;;;;;;;;;;;;;;;23.55;53.93;100410.03;4973195;28;4192;-72
2023/07/15 12:36:17;;;;;;;;;;;;;;;23.54;53.61;100412.16;4961754;28;4146;-72
2023/07/15 12:38:44;;;;;;;;;;;;;;;23.54;53.78;100417.22;4967289;28;4275;-73
2023/07/15 12:41:11;;;;;;;;;;;;;;;23.54;53.58;100411.44;4965666;28;4432;-72
2023/07/15 12:43:38;;;;;;;;;;;;;;;23.53;53.76;100407.09;4965027;28;4288;-72
2023/07/15 12:46:04;;;;;;;;;;;;;;;23.53;53.84;100409.97;4964956;28;4343;-72
2023/07/15 12:48:31;;;;;;;;;;;;;;;23.54;53.74;100405.66;4970095;28;4019;-72